createdAt,value
2023-03-31T00:01:15.390Z,101004.44
2023-03-31T00:03:44.952Z,101007.09
2023-03-31T00:06:19.137Z,101008.81
2023-03-31T00:08:52.349Z,101003.72
2023-03-31T00:11:24.504Z,101003.72
2023-03-31T00:13:53.258Z,101003.72
2023-03-31T00:16:21.847Z,100990.53
2023-03-31T00:18:52.233Z,100986.94
2023-03-31T00:21:26.090Z,100985.13
2023-03-31T00:24:00.445Z,100972.66
2023-03-31T00:26:29.610Z,100971.00
2023-03-31T00:28:58.921Z,100970.16
2023-03-31T00:31:28.097Z,100969.41
2023-03-31T00:33:57.367Z,100971.09
2023-03-31T00:36:29.269Z,100962.19
2023-03-31T00:39:01.007Z,100966.50
2023-03-31T00:41:29.969Z,100961.31
2023-03-31T00:44:15.005Z,100958.66
2023-03-31T00:46:58.460Z,100958.66
2023-03-31T00:49:42.314Z,100951.78
2023-03-31T00:52:38.402Z,100945.50
2023-03-31T00:55:15.022Z,100938.38
2023-03-31T00:57:45.113Z,100939.19
2023-03-31T01:00:15.819Z,100945.50
2023-03-31T01:02:52.831Z,100940.19
2023-03-31T01:05:40.163Z,100929.56
2023-03-31T01:08:08.868Z,100941.03
2023-03-31T01:10:42.214Z,100931.34
2023-03-31T01:13:11.374Z,100926.91
2023-03-31T01:15:40.232Z,100922.53
2023-03-31T01:18:11.444Z,100920.09
2023-03-31T01:21:07.979Z,100903.91
2023-03-31T01:24:06.617Z,100902.25
2023-03-31T01:26:54.968Z,100898.84
2023-03-31T01:29:45.448Z,100913.72
2023-03-31T01:32:51.286Z,100901.25
2023-03-31T01:35:38.759Z,100903.91
2023-03-31T01:38:10.706Z,100905.75
2023-03-31T01:41:32.281Z,100906.56
2023-03-31T01:44:44.169Z,100907.56
2023-03-31T01:47:41.181Z,100909.34
2023-03-31T01:50:37.127Z,100898.72
2023-03-31T01:53:19.151Z,100900.44
2023-03-31T01:56:16.893Z,100894.28
2023-03-31T01:58:59.688Z,100886.41
2023-03-31T02:01:56.913Z,100880.22
2023-03-31T02:04:42.580Z,100864.28
2023-03-31T02:07:29.452Z,100863.44
2023-03-31T02:10:01.779Z,100872.13
2023-03-31T02:12:32.718Z,100864.28
2023-03-31T02:15:01.636Z,100865.97
2023-03-31T02:17:32.968Z,100859.84
2023-03-31T02:20:06.498Z,100857.06
2023-03-31T02:22:38.164Z,100845.81
2023-03-31T02:25:08.702Z,100851.00
2023-03-31T02:27:42.816Z,100843.00
2023-03-31T02:30:12.238Z,100861.50
2023-03-31T02:32:43.025Z,100860.66
2023-03-31T02:35:19.620Z,100856.31
2023-03-31T02:37:49.974Z,100848.47
2023-03-31T02:40:21.947Z,100842.19
2023-03-31T02:42:50.772Z,100841.56
2023-03-31T02:45:40.682Z,100851.00
2023-03-31T02:48:23.908Z,100844.94
2023-03-31T02:51:02.537Z,100841.34
2023-03-31T02:53:44.114Z,100848.59
2023-03-31T02:56:43.370Z,100848.34
2023-03-31T02:59:53.224Z,100848.59
2023-03-31T03:02:35.077Z,100865.38
2023-03-31T03:05:36.735Z,100857.41
2023-03-31T03:08:55.829Z,100853.91
2023-03-31T03:11:40.672Z,100844.94
2023-03-31T03:14:36.942Z,100842.28
2023-03-31T03:17:18.293Z,100852.09
2023-03-31T03:19:59.462Z,100847.59
2023-03-31T03:22:28.345Z,100830.94
2023-03-31T03:24:56.812Z,100824.78
2023-03-31T03:27:25.629Z,100822.13
2023-03-31T03:29:54.157Z,100807.03
2023-03-31T03:32:23.036Z,100806.19
2023-03-31T03:34:51.504Z,100811.50
2023-03-31T03:37:20.573Z,100817.78
2023-03-31T03:39:49.055Z,100825.78
2023-03-31T03:42:17.764Z,100805.34
2023-03-31T03:44:46.224Z,100806.19
2023-03-31T03:47:15.291Z,100802.81
2023-03-31T03:49:43.846Z,100798.47
2023-03-31T03:52:12.671Z,100802.69
2023-03-31T03:54:41.183Z,100801.69
2023-03-31T03:57:10.074Z,100796.53
2023-03-31T03:59:38.741Z,100785.03
2023-03-31T04:02:07.727Z,100785.03
2023-03-31T04:04:36.404Z,100794.72
2023-03-31T04:07:05.624Z,100801.69
2023-03-31T04:09:35.537Z,100796.53
2023-03-31T04:12:04.796Z,100800.97
2023-03-31T04:14:33.272Z,100806.31
2023-03-31T04:17:03.079Z,100803.63
2023-03-31T04:19:31.444Z,100799.31
2023-03-31T04:22:03.290Z,100802.81
2023-03-31T04:24:33.400Z,100804.63
2023-03-31T04:27:03.385Z,100798.47
2023-03-31T04:29:34.031Z,100795.81
2023-03-31T04:32:03.085Z,100786.03
2023-03-31T04:34:37.515Z,100786.97
2023-03-31T04:37:06.307Z,100795.94
2023-03-31T04:39:34.702Z,100781.66
2023-03-31T04:42:05.483Z,100778.16
2023-03-31T04:44:33.787Z,100767.53
2023-03-31T04:47:03.483Z,100768.53
2023-03-31T04:49:33.849Z,100761.50
2023-03-31T04:52:02.565Z,100768.63
2023-03-31T04:54:30.955Z,100779.97
2023-03-31T04:56:59.735Z,100775.75
2023-03-31T04:59:28.106Z,100771.28
2023-03-31T05:01:57.097Z,100769.47
2023-03-31T05:04:25.747Z,100792.56
2023-03-31T05:06:54.484Z,100802.19
2023-03-31T05:09:22.960Z,100779.25
2023-03-31T05:11:51.861Z,100771.28
2023-03-31T05:14:21.139Z,100765.00
2023-03-31T05:16:49.909Z,100774.91
2023-03-31T05:19:18.499Z,100769.59
2023-03-31T05:21:47.345Z,100762.59
2023-03-31T05:24:15.797Z,100761.63
2023-03-31T05:26:52.875Z,100763.31
2023-03-31T05:29:21.752Z,100746.66
2023-03-31T05:31:51.132Z,100743.84
2023-03-31T05:34:19.855Z,100735.16
2023-03-31T05:36:50.664Z,100746.66
2023-03-31T05:39:18.946Z,100742.19
2023-03-31T05:41:47.642Z,100745.66
2023-03-31T05:44:16.214Z,100750.25
2023-03-31T05:46:45.012Z,100743.28
2023-03-31T05:49:16.223Z,100758.97
2023-03-31T05:51:44.923Z,100754.63
2023-03-31T05:54:13.675Z,100758.97
2023-03-31T05:56:42.354Z,100757.28
2023-03-31T05:59:10.949Z,100757.28
2023-03-31T06:01:39.863Z,100736.03
2023-03-31T06:04:08.228Z,100736.88
2023-03-31T06:06:38.480Z,100736.16
2023-03-31T06:09:06.987Z,100731.66
2023-03-31T06:11:36.194Z,100737.97
2023-03-31T06:14:05.018Z,100736.97
2023-03-31T06:16:34.076Z,100737.69
2023-03-31T06:19:02.452Z,100738.81
2023-03-31T06:21:31.292Z,100735.38
2023-03-31T06:24:00.639Z,100730.91
2023-03-31T06:26:29.495Z,100724.69
2023-03-31T06:28:57.938Z,100722.03
2023-03-31T06:31:26.798Z,100705.19
2023-03-31T06:33:55.237Z,100699.03
2023-03-31T06:36:24.049Z,100695.44
2023-03-31T06:38:52.563Z,100690.22
2023-03-31T06:41:22.712Z,100689.38
2023-03-31T06:43:51.289Z,100690.22
2023-03-31T06:46:20.096Z,100685.75
2023-03-31T06:48:48.673Z,100683.09
2023-03-31T06:51:17.461Z,100689.50
2023-03-31T06:53:45.844Z,100680.69
2023-03-31T06:56:14.700Z,100677.06
2023-03-31T06:58:43.171Z,100675.38
2023-03-31T07:01:12.211Z,100679.94
2023-03-31T07:03:40.971Z,100685.25
2023-03-31T07:06:10.001Z,100678.28
2023-03-31T07:08:38.509Z,100676.44
2023-03-31T07:11:07.439Z,100672.25
2023-03-31T07:13:36.010Z,100657.72
2023-03-31T07:16:05.609Z,100659.44
2023-03-31T07:18:35.468Z,100654.84
2023-03-31T07:21:09.063Z,100661.81
2023-03-31T07:23:38.567Z,100654.84
2023-03-31T07:26:08.057Z,100663.03
2023-03-31T07:28:36.508Z,100664.59
2023-03-31T07:31:14.489Z,100658.69
2023-03-31T07:33:42.856Z,100651.59
2023-03-31T07:36:13.287Z,100655.06
2023-03-31T07:38:43.703Z,100654.25
2023-03-31T07:41:18.677Z,100652.53
2023-03-31T07:43:47.298Z,100648.06
2023-03-31T07:46:27.326Z,100657.00
2023-03-31T07:48:57.013Z,100658.69
2023-03-31T07:51:26.766Z,100649.75
2023-03-31T07:53:55.098Z,100651.47
2023-03-31T07:56:25.043Z,100635.75
2023-03-31T07:58:56.872Z,100628.50
2023-03-31T08:01:29.030Z,100633.00
2023-03-31T08:03:57.749Z,100633.00
2023-03-31T08:06:27.124Z,100629.63
2023-03-31T08:08:55.683Z,100639.13
2023-03-31T08:11:24.578Z,100640.84
2023-03-31T08:13:53.115Z,100647.09
2023-03-31T08:16:21.891Z,100641.78
2023-03-31T08:18:50.754Z,100633.00
2023-03-31T08:21:20.580Z,100647.94
2023-03-31T08:23:50.459Z,100641.69
2023-03-31T08:26:19.355Z,100632.88
2023-03-31T08:28:49.506Z,100623.91
2023-03-31T08:31:20.612Z,100624.63
2023-03-31T08:33:49.054Z,100627.56
2023-03-31T08:36:17.955Z,100625.84
2023-03-31T08:38:47.535Z,100633.00
2023-03-31T08:41:37.013Z,100625.72
2023-03-31T08:44:16.462Z,100612.44
2023-03-31T08:46:45.515Z,100606.03
2023-03-31T08:49:17.036Z,100603.38
2023-03-31T08:51:58.521Z,100599.88
2023-03-31T08:54:38.944Z,100591.31
2023-03-31T08:57:27.497Z,100589.38
2023-03-31T08:59:59.087Z,100603.63
2023-03-31T09:02:49.614Z,100606.16
2023-03-31T09:05:56.820Z,100622.47
2023-03-31T09:08:38.888Z,100616.94
2023-03-31T09:11:35.796Z,100626.81
2023-03-31T09:14:38.250Z,100619.59
2023-03-31T09:17:25.666Z,100624.63
2023-03-31T09:20:08.683Z,100617.03
2023-03-31T09:22:53.423Z,100589.59
2023-03-31T09:25:27.259Z,100578.16
2023-03-31T09:27:58.143Z,100570.88
2023-03-31T09:30:32.403Z,100569.09
2023-03-31T09:33:22.812Z,100560.25
2023-03-31T09:35:52.307Z,100567.28
2023-03-31T09:38:21.072Z,100564.50
2023-03-31T09:40:49.827Z,100561.97
2023-03-31T09:43:31.752Z,100551.34
2023-03-31T09:46:08.750Z,100553.28
2023-03-31T09:48:38.754Z,100564.50
2023-03-31T09:51:10.725Z,100560.84
2023-03-31T09:53:57.103Z,100552.53
2023-03-31T09:56:55.717Z,100548.06
2023-03-31T09:59:32.487Z,100537.44
2023-03-31T10:02:05.671Z,100527.91
2023-03-31T10:04:35.132Z,100526.31
2023-03-31T10:07:05.471Z,100513.03
2023-03-31T10:09:34.507Z,100513.03
2023-03-31T10:12:16.414Z,100511.94
2023-03-31T10:14:47.571Z,100494.94
2023-03-31T10:17:19.690Z,100490.69
2023-03-31T10:19:58.292Z,100491.28
2023-03-31T10:22:31.398Z,100489.63
2023-03-31T10:25:19.315Z,100487.66
2023-03-31T10:27:52.645Z,100487.78
2023-03-31T10:30:29.486Z,100481.25
2023-03-31T10:33:01.550Z,100482.94
2023-03-31T10:35:35.982Z,100485.44
2023-03-31T10:38:14.737Z,100495.25
2023-03-31T10:40:52.431Z,100497.19
2023-03-31T10:43:37.837Z,100491.03
2023-03-31T10:46:06.289Z,100479.00
2023-03-31T10:48:41.661Z,100485.97
2023-03-31T10:51:17.330Z,100482.34
2023-03-31T10:53:50.619Z,100480.28
2023-03-31T10:56:49.351Z,100471.19
2023-03-31T10:59:34.296Z,100455.84
2023-03-31T11:02:33.355Z,100442.28
2023-03-31T11:05:25.596Z,100439.25
2023-03-31T11:08:18.650Z,100425.66
2023-03-31T11:11:31.567Z,100412.13
2023-03-31T11:14:32.489Z,100405.56
2023-03-31T11:17:04.593Z,100395.63
2023-03-31T11:19:43.231Z,100396.22
2023-03-31T11:22:38.156Z,100386.53
2023-03-31T11:25:39.566Z,100368.50
2023-03-31T11:28:27.538Z,100363.66
2023-03-31T11:31:24.455Z,100360.16
2023-03-31T11:34:29.389Z,100351.44
2023-03-31T11:37:22.439Z,100339.72
2023-03-31T11:40:09.642Z,100330.16
2023-03-31T11:42:47.368Z,100324.47
2023-03-31T11:45:50.566Z,100311.88
2023-03-31T11:48:37.346Z,100306.56
2023-03-31T11:51:12.178Z,100289.47
2023-03-31T11:53:40.729Z,100291.88
2023-03-31T11:56:11.044Z,100291.75
2023-03-31T11:58:53.206Z,100279.41
2023-03-31T12:01:30.350Z,100272.44
2023-03-31T12:04:33.774Z,100270.16
2023-03-31T12:07:22.993Z,100263.88
2023-03-31T12:10:22.777Z,100258.41
2023-03-31T12:13:29.680Z,100253.94
2023-03-31T12:16:20.632Z,100253.66
2023-03-31T12:19:23.406Z,100248.34
2023-03-31T12:22:17.319Z,100245.09
2023-03-31T12:24:47.208Z,100231.28
2023-03-31T12:27:42.170Z,100215.31
2023-03-31T12:30:42.490Z,100219.50
2023-03-31T12:33:23.664Z,100207.47
2023-03-31T12:36:32.766Z,100199.19
2023-03-31T12:39:23.909Z,100202.56
2023-03-31T12:42:49.043Z,100186.91
2023-03-31T12:45:32.003Z,100179.75
2023-03-31T12:48:07.091Z,100169.94
2023-03-31T12:51:49.945Z,100175.25
2023-03-31T12:54:52.341Z,100170.66
2023-03-31T12:57:25.005Z,100158.78
2023-03-31T13:00:12.731Z,100155.97
2023-03-31T13:02:41.630Z,100149.81
2023-03-31T13:05:47.945Z,100142.81
2023-03-31T13:09:08.808Z,100126.44
2023-03-31T13:11:47.995Z,100120.31
2023-03-31T13:14:22.181Z,100115.13
2023-03-31T13:16:54.304Z,100120.44
2023-03-31T13:19:33.665Z,100106.16
2023-03-31T13:22:06.307Z,100098.88
2023-03-31T13:24:34.893Z,100089.22
2023-03-31T13:27:33.774Z,100093.56
2023-03-31T13:30:02.232Z,100090.50
2023-03-31T13:32:31.237Z,100101.00
2023-03-31T13:35:21.740Z,100089.50
2023-03-31T13:38:05.527Z,100076.22
2023-03-31T13:41:03.065Z,100074.53
2023-03-31T13:44:20.420Z,100062.22
2023-03-31T13:47:41.646Z,100044.31
2023-03-31T13:50:27.760Z,100037.91
2023-03-31T13:53:31.681Z,100032.97
2023-03-31T13:56:39.037Z,100040.97
2023-03-31T13:59:42.039Z,100035.94
2023-03-31T14:02:40.909Z,100035.94
2023-03-31T14:05:36.413Z,100028.81
2023-03-31T14:08:37.214Z,100033.28
2023-03-31T14:11:25.102Z,100023.63
2023-03-31T14:14:07.943Z,100008.66
2023-03-31T14:17:01.644Z,100009.38
2023-03-31T14:19:45.138Z,100006.84
2023-03-31T14:22:59.390Z,99992.88
2023-03-31T14:25:55.726Z,99985.59
2023-03-31T14:28:52.759Z,99979.56
2023-03-31T14:31:36.697Z,99981.41
2023-03-31T14:34:26.442Z,99976.09
2023-03-31T14:37:24.964Z,99968.25
2023-03-31T14:39:56.717Z,99963.75
2023-03-31T14:42:50.094Z,99952.31
2023-03-31T14:45:25.400Z,99933.97
2023-03-31T14:47:56.842Z,99930.91
2023-03-31T14:50:35.848Z,99929.09
2023-03-31T14:53:05.130Z,99913.28
2023-03-31T14:55:49.763Z,99920.28
2023-03-31T14:58:50.782Z,99909.78
2023-03-31T15:01:25.010Z,99913.41
2023-03-31T15:03:54.098Z,99900.28
2023-03-31T15:06:25.974Z,99903.78
2023-03-31T15:08:57.570Z,99897.63
2023-03-31T15:11:26.054Z,99889.94
2023-03-31T15:14:04.483Z,99880.97
2023-03-31T15:16:42.692Z,99872.31
2023-03-31T15:19:26.605Z,99874.13
2023-03-31T15:22:06.430Z,99877.94
2023-03-31T15:24:35.174Z,99876.78
2023-03-31T15:27:23.440Z,99888.25
2023-03-31T15:29:59.729Z,99893.72
2023-03-31T15:32:34.995Z,99891.91
2023-03-31T15:35:18.863Z,99889.38
2023-03-31T15:37:52.441Z,99884.91
2023-03-31T15:40:41.192Z,99883.38
2023-03-31T15:45:52.291Z,99877.09
2023-03-31T15:48:56.187Z,99874.56
2023-03-31T15:51:39.594Z,99870.09
2023-03-31T15:54:37.138Z,99862.44
2023-03-31T15:57:07.525Z,99875.41
2023-03-31T16:02:47.238Z,99878.19
2023-03-31T16:05:53.559Z,99872.88
2023-03-31T16:08:29.118Z,99868.56
2023-03-31T16:11:05.135Z,99865.09
2023-03-31T16:13:33.806Z,99869.25
2023-03-31T16:16:02.313Z,99858.63
2023-03-31T16:18:37.436Z,99865.78
2023-03-31T16:21:06.423Z,99862.44
2023-03-31T16:23:47.258Z,99865.91
2023-03-31T16:26:22.726Z,99865.78
2023-03-31T16:28:53.052Z,99872.06
2023-03-31T16:31:36.947Z,99865.22
2023-03-31T16:34:07.895Z,99857.25
2023-03-31T16:36:36.485Z,99849.97
2023-03-31T16:39:05.764Z,99859.59
2023-03-31T16:41:34.931Z,99853.31
2023-03-31T16:44:03.692Z,99848.16
2023-03-31T16:46:32.018Z,99848.84
2023-03-31T16:49:00.817Z,99849.66
2023-03-31T16:51:29.295Z,99855.28
2023-03-31T16:53:59.360Z,99845.22
2023-03-31T16:56:28.319Z,99833.72
2023-03-31T16:58:57.523Z,99823.09
2023-03-31T17:01:25.875Z,99814.16
2023-03-31T17:03:55.234Z,99810.22
2023-03-31T17:06:23.739Z,99795.09
2023-03-31T17:08:52.432Z,99794.28
2023-03-31T17:11:20.729Z,99794.28
2023-03-31T17:13:50.097Z,99777.09
2023-03-31T17:16:24.356Z,99783.66
2023-03-31T17:19:01.813Z,99787.13
2023-03-31T17:21:30.239Z,99792.59
2023-03-31T17:24:01.568Z,99791.75
2023-03-31T17:26:31.044Z,99800.56
2023-03-31T17:29:00.795Z,99797.91
2023-03-31T17:31:31.078Z,99795.25
2023-03-31T17:33:59.972Z,99792.59
2023-03-31T17:36:28.493Z,99788.41
2023-03-31T17:38:57.162Z,99786.44
2023-03-31T17:41:25.736Z,99782.97
2023-03-31T17:43:54.466Z,99783.94
2023-03-31T17:46:23.142Z,99777.78
2023-03-31T17:48:53.926Z,99787.44
2023-03-31T17:51:23.318Z,99777.78
2023-03-31T17:53:52.254Z,99772.47
2023-03-31T17:56:20.863Z,99776.97
2023-03-31T17:58:49.608Z,99776.97
2023-03-31T18:01:19.320Z,99782.28
2023-03-31T18:03:48.214Z,99782.28
2023-03-31T18:06:18.198Z,99795.56
2023-03-31T18:08:47.505Z,99782.28
2023-03-31T18:11:15.897Z,99789.41
2023-03-31T18:13:44.909Z,99791.06
2023-03-31T18:16:13.581Z,99797.22
2023-03-31T18:18:42.750Z,99805.19
2023-03-31T18:21:13.314Z,99806.03
2023-03-31T18:23:42.227Z,99793.59
2023-03-31T18:26:12.020Z,99801.69
2023-03-31T18:28:43.883Z,99808.84
2023-03-31T18:31:12.715Z,99810.50
2023-03-31T18:33:42.051Z,99807.16
2023-03-31T18:36:19.224Z,99798.91
2023-03-31T18:38:51.618Z,99801.69
2023-03-31T18:41:20.833Z,99799.88
2023-03-31T18:43:52.977Z,99802.53
2023-03-31T18:46:21.942Z,99811.34
2023-03-31T18:48:51.602Z,99797.22
2023-03-31T18:51:20.415Z,99796.25
2023-03-31T18:53:52.184Z,99802.53
2023-03-31T18:56:23.455Z,99786.59
2023-03-31T18:58:52.953Z,99793.59
2023-03-31T19:01:21.438Z,99789.25
2023-03-31T19:03:50.340Z,99787.44
2023-03-31T19:06:21.204Z,99789.25
2023-03-31T19:08:50.038Z,99777.94
2023-03-31T19:11:19.028Z,99788.41
2023-03-31T19:13:47.993Z,99783.94
2023-03-31T19:16:17.798Z,99782.28
2023-03-31T19:18:47.237Z,99773.63
2023-03-31T19:21:15.814Z,99791.22
2023-03-31T19:23:44.747Z,99784.94
2023-03-31T19:26:18.525Z,99782.28
2023-03-31T19:28:48.526Z,99774.31
2023-03-31T19:31:17.107Z,99768.44
2023-03-31T19:33:46.529Z,99771.66
2023-03-31T19:36:15.135Z,99779.63
2023-03-31T19:38:44.128Z,99784.25
2023-03-31T19:41:12.618Z,99779.75
2023-03-31T19:43:41.315Z,99781.59
2023-03-31T19:46:09.850Z,99768.28
2023-03-31T19:48:38.770Z,99762.97
2023-03-31T19:51:08.676Z,99757.66
2023-03-31T19:53:38.583Z,99756.84
2023-03-31T19:56:16.141Z,99757.66
2023-03-31T19:58:45.157Z,99761.28
2023-03-31T20:01:27.593Z,99770.13
2023-03-31T20:03:57.046Z,99763.94
2023-03-31T20:06:29.001Z,99757.81
2023-03-31T20:09:00.176Z,99757.66
2023-03-31T20:11:32.314Z,99755.00
2023-03-31T20:14:01.446Z,99746.22
2023-03-31T20:16:31.224Z,99748.88
2023-03-31T20:19:05.293Z,99738.38
2023-03-31T20:21:36.180Z,99737.38
2023-03-31T20:24:05.870Z,99738.38
2023-03-31T20:26:34.912Z,99738.38
2023-03-31T20:29:04.194Z,99740.03
2023-03-31T20:31:36.861Z,99748.19
2023-03-31T20:34:08.965Z,99750.66
2023-03-31T20:36:37.425Z,99742.88
2023-03-31T20:39:06.686Z,99735.72
2023-03-31T20:41:37.432Z,99726.06
2023-03-31T20:44:07.880Z,99730.41
2023-03-31T20:46:37.439Z,99734.03
2023-03-31T20:49:07.696Z,99745.53
2023-03-31T20:51:39.878Z,99738.66
2023-03-31T20:54:08.868Z,99742.88
2023-03-31T20:56:41.721Z,99739.34
2023-03-31T20:59:15.415Z,99738.38
2023-03-31T21:01:45.427Z,99743.84
2023-03-31T21:04:14.379Z,99745.66
2023-03-31T21:06:45.661Z,99741.31
2023-03-31T21:09:15.400Z,99732.53
2023-03-31T21:11:44.080Z,99751.81
2023-03-31T21:14:16.607Z,99747.31
2023-03-31T21:16:45.262Z,99748.31
2023-03-31T21:19:14.117Z,99746.50
2023-03-31T21:21:43.562Z,99746.50
2023-03-31T21:24:13.368Z,99733.34
2023-03-31T21:26:42.007Z,99725.38
2023-03-31T21:29:10.921Z,99719.09
2023-03-31T21:31:39.506Z,99723.72
2023-03-31T21:34:09.302Z,99709.59
2023-03-31T21:36:37.753Z,99701.47
2023-03-31T21:39:06.615Z,99699.66
2023-03-31T21:41:35.174Z,99704.28
2023-03-31T21:44:04.479Z,99687.34
2023-03-31T21:46:33.828Z,99690.84
2023-03-31T21:49:03.211Z,99678.56
2023-03-31T21:51:31.879Z,99667.25
2023-03-31T21:54:00.648Z,99669.91
2023-03-31T21:56:31.919Z,99666.25
2023-03-31T21:59:02.641Z,99660.22
2023-03-31T22:01:31.720Z,99655.75
2023-03-31T22:04:00.872Z,99668.09
2023-03-31T22:06:29.578Z,99668.09
2023-03-31T22:08:58.641Z,99664.59
2023-03-31T22:11:28.882Z,99664.59
2023-03-31T22:13:57.983Z,99658.41
2023-03-31T22:16:26.985Z,99659.28
2023-03-31T22:18:56.159Z,99655.75
2023-03-31T22:21:41.991Z,99659.41
2023-03-31T22:24:12.555Z,99661.22
2023-03-31T22:26:41.225Z,99658.56
2023-03-31T22:29:15.131Z,99664.84
2023-03-31T22:31:43.629Z,99668.34
2023-03-31T22:34:12.527Z,99668.34
2023-03-31T22:36:41.036Z,99664.84
2023-03-31T22:39:10.570Z,99663.03
2023-03-31T22:41:39.052Z,99681.63
2023-03-31T22:44:08.509Z,99675.47
2023-03-31T22:46:38.058Z,99676.47
2023-03-31T22:49:06.843Z,99677.31
2023-03-31T22:51:35.348Z,99683.44
2023-03-31T22:54:04.355Z,99673.81
2023-03-31T22:56:32.905Z,99682.63
2023-03-31T22:59:02.484Z,99678.13
2023-03-31T23:01:31.134Z,99676.47
2023-03-31T23:04:01.451Z,99671.31
2023-03-31T23:06:31.483Z,99672.97
2023-03-31T23:09:01.580Z,99666.00
2023-03-31T23:11:30.684Z,99666.81
2023-03-31T23:13:59.442Z,99669.47
2023-03-31T23:16:27.906Z,99657.16
2023-03-31T23:18:56.822Z,99664.31
2023-03-31T23:21:27.452Z,99658.16
2023-03-31T23:23:58.880Z,99657.34
2023-03-31T23:26:28.097Z,99650.19
2023-03-31T23:28:57.549Z,99648.50
2023-03-31T23:31:31.421Z,99647.53
2023-03-31T23:34:00.726Z,99647.53
2023-03-31T23:36:29.397Z,99646.72
2023-03-31T23:38:58.223Z,99644.06
2023-03-31T23:41:26.863Z,99638.75
2023-03-31T23:43:57.930Z,99637.88
2023-03-31T23:46:26.657Z,99636.22
2023-03-31T23:48:56.024Z,99631.06
2023-03-31T23:51:24.600Z,99633.72
2023-03-31T23:53:53.427Z,99627.56
2023-03-31T23:56:22.521Z,99627.44
2023-03-31T23:58:51.464Z,99627.44
